Time;durP1;ratioP1;P1;durP2;ratioP2;P2;SDS_P1;SDS_P2;PMS_P1;PMS_P2;Temp;Humidity;BMP_temperature;BMP_pressure;BME280_temperature;BME280_humidity;BME280_pressure;Samples;Min_cycle;Max_cycle;Signal;HPM_P1;HPM_P2
2022/12/06 00:01:11;;;;;;;8.17;6.03;;;2.10;99.90;;;;;;5096306;28;20360;-77
2022/12/06 00:03:38;;;;;;;8.20;5.70;;;2.10;99.90;;;;;;5095402;28;20474;-77
2022/12/06 00:06:17;;;;;;;6.37;5.10;;;2.10;99.90;;;;;;5096139;28;20012;-78
2022/12/06 00:08:44;;;;;;;7.77;5.60;;;2.10;99.90;;;;;;5091767;28;20482;-81
2022/12/06 00:11:16;;;;;;;8.27;6.03;;;2.10;99.90;;;;;;5085754;28;20281;-81
2022/12/06 00:13:42;;;;;;;8.23;5.90;;;2.10;99.90;;;;;;5084515;28;20032;-81
2022/12/06 00:16:14;;;;;;;6.47;5.57;;;2.00;99.90;;;;;;5085375;28;20035;-81
2022/12/06 00:18:41;;;;;;;9.10;6.43;;;2.00;99.90;;;;;;5085154;28;20059;-81
2022/12/06 00:21:12;;;;;;;8.97;6.30;;;1.90;99.90;;;;;;5085176;28;20475;-81
2022/12/06 00:23:59;;;;;;;8.60;6.17;;;1.90;99.90;;;;;;5083999;28;20111;-81
2022/12/06 00:26:27;;;;;;;11.43;7.60;;;1.90;99.90;;;;;;5084263;28;20039;-81
2022/12/06 00:28:58;;;;;;;12.27;6.80;;;1.90;99.90;;;;;;5085157;28;20020;-81
2022/12/06 00:31:25;;;;;;;11.10;7.27;;;1.80;99.90;;;;;;5084706;28;20031;-81
2022/12/06 00:33:51;;;;;;;10.13;6.90;;;1.80;99.90;;;;;;5084858;28;20035;-81
2022/12/06 00:36:22;;;;;;;11.57;7.60;;;1.70;99.90;;;;;;5085625;28;20043;-81
2022/12/06 00:38:49;;;;;;;11.13;7.83;;;1.70;99.90;;;;;;5084221;28;20035;-81
2022/12/06 00:41:22;;;;;;;12.83;7.70;;;1.70;99.90;;;;;;5085504;28;20412;-81
2022/12/06 00:43:49;;;;;;;10.37;7.73;;;1.70;99.90;;;;;;5086440;28;20114;-80
2022/12/06 00:46:18;;;;;;;10.63;7.60;;;1.70;99.90;;;;;;5085803;28;20016;-80
2022/12/06 00:48:45;;;;;;;8.93;7.00;;;1.70;99.90;;;;;;5084340;28;20097;-81
2022/12/06 00:51:12;;;;;;;10.63;7.40;;;1.70;99.90;;;;;;5084061;28;20537;-81
2022/12/06 00:53:38;;;;;;;11.53;8.10;;;1.70;99.90;;;;;;5084802;28;20330;-81
2022/12/06 00:56:03;;;;;;;11.17;7.27;;;1.70;99.90;;;;;;5084844;28;20085;-81
2022/12/06 00:58:29;;;;;;;9.87;7.60;;;1.70;99.90;;;;;;5083154;28;20059;-81
2022/12/06 01:00:55;;;;;;;10.80;7.90;;;1.70;99.90;;;;;;5086437;28;20470;-78
2022/12/06 01:03:21;;;;;;;10.20;7.40;;;1.80;99.90;;;;;;5094837;28;20028;-78
2022/12/06 01:05:49;;;;;;;10.30;7.30;;;1.80;99.90;;;;;;5094655;28;20464;-77
2022/12/06 01:08:16;;;;;;;9.67;7.80;;;1.80;99.90;;;;;;5094773;28;20028;-78
2022/12/06 01:10:49;;;;;;;9.00;7.27;;;1.80;99.90;;;;;;5094441;28;20380;-78
2022/12/06 01:13:15;;;;;;;11.87;8.07;;;1.80;99.90;;;;;;5094174;28;20061;-77
2022/12/06 01:15:40;;;;;;;10.97;8.03;;;1.80;99.90;;;;;;5094394;28;20097;-77
2022/12/06 01:18:06;;;;;;;11.37;8.43;;;1.80;99.90;;;;;;5093795;28;20055;-77
2022/12/06 01:20:32;;;;;;;10.17;7.57;;;1.80;99.90;;;;;;5094035;28;20099;-78
2022/12/06 01:22:58;;;;;;;12.47;8.63;;;1.70;99.90;;;;;;5093934;28;20024;-78
2022/12/06 01:25:23;;;;;;;10.63;8.40;;;1.70;99.90;;;;;;5094741;28;20035;-78
2022/12/06 01:27:49;;;;;;;16.00;8.33;;;1.70;99.90;;;;;;5094577;28;20024;-77
2022/12/06 01:30:15;;;;;;;12.53;9.03;;;1.60;99.90;;;;;;5094866;28;20059;-77
2022/12/06 01:32:40;;;;;;;14.07;8.13;;;1.50;99.90;;;;;;5094685;28;20452;-77
2022/12/06 01:35:06;;;;;;;12.17;8.83;;;1.50;99.90;;;;;;5094656;28;20472;-78
2022/12/06 01:37:32;;;;;;;11.70;8.67;;;1.50;99.90;;;;;;5094629;28;20032;-78
2022/12/06 01:39:57;;;;;;;14.17;8.50;;;1.40;99.90;;;;;;5094342;28;20019;-78
2022/12/06 01:42:23;;;;;;;14.67;8.17;;;1.40;99.90;;;;;;5094451;28;20361;-78
2022/12/06 01:44:52;;;;;;;13.33;8.93;;;1.30;99.90;;;;;;5092922;28;20081;-77
2022/12/06 01:47:29;;;;;;;11.83;8.10;;;1.30;99.90;;;;;;5094429;28;20392;-77
2022/12/06 01:50:06;;;;;;;10.77;8.17;;;1.20;99.90;;;;;;5094365;28;20030;-77
2022/12/06 01:52:38;;;;;;;12.10;8.60;;;1.20;99.90;;;;;;5091865;28;20104;-77
2022/12/06 01:55:06;;;;;;;12.03;8.93;;;1.20;99.90;;;;;;5091461;28;20081;-77
2022/12/06 01:57:32;;;;;;;13.97;9.60;;;1.10;99.90;;;;;;5093793;28;20073;-78
2022/12/06 01:59:58;;;;;;;13.57;9.90;;;1.10;99.90;;;;;;5093744;28;20031;-78
2022/12/06 02:02:24;;;;;;;16.77;10.17;;;1.10;99.90;;;;;;5094034;28;20032;-78
2022/12/06 02:04:51;;;;;;;14.23;9.87;;;1.10;99.90;;;;;;5093903;28;20060;-77
2022/12/06 02:07:17;;;;;;;14.83;10.03;;;1.10;99.90;;;;;;5092562;28;20035;-78
2022/12/06 02:09:44;;;;;;;14.87;10.63;;;1.20;99.90;;;;;;5092513;28;20048;-78
2022/12/06 02:12:14;;;;;;;15.40;11.00;;;1.20;99.90;;;;;;5093863;28;20032;-77
2022/12/06 02:14:45;;;;;;;15.43;10.13;;;1.20;99.90;;;;;;5093658;28;20093;-78
2022/12/06 02:17:26;;;;;;;18.27;12.30;;;1.30;99.90;;;;;;5092221;28;20131;-77
2022/12/06 02:19:58;;;;;;;15.43;11.10;;;1.30;99.90;;;;;;5090096;28;20500;-77
2022/12/06 02:23:04;;;;;;;21.97;13.70;;;1.30;99.90;;;;;;5092650;28;20089;-78
2022/12/06 02:25:51;;;;;;;17.83;12.20;;;1.40;99.90;;;;;;5090858;28;20028;-77
2022/12/06 02:28:25;;;;;;;15.43;11.37;;;1.40;99.90;;;;;;5091303;28;20039;-77
2022/12/06 02:31:03;;;;;;;17.77;11.80;;;1.40;99.90;;;;;;5093603;28;20321;-78
2022/12/06 02:33:53;;;;;;;16.07;11.37;;;1.40;99.90;;;;;;5093278;28;20020;-77
2022/12/06 02:36:32;;;;;;;17.83;10.90;;;1.50;99.90;;;;;;5082153;28;20469;-77
2022/12/06 02:39:26;;;;;;;14.20;10.80;;;1.50;99.90;;;;;;5093695;28;20099;-78
2022/12/06 02:42:26;;;;;;;15.70;10.43;;;1.50;99.90;;;;;;5093193;28;20038;-77
2022/12/06 02:44:54;;;;;;;15.37;10.33;;;1.50;99.90;;;;;;5070331;28;20024;-77
2022/12/06 02:47:35;;;;;;;16.40;10.57;;;1.40;99.90;;;;;;5089628;28;20357;-78
2022/12/06 02:50:09;;;;;;;14.40;10.27;;;1.50;99.90;;;;;;5087369;28;20047;-77
2022/12/06 02:52:40;;;;;;;14.60;10.50;;;1.50;99.90;;;;;;5092173;28;20024;-78
2022/12/06 02:55:07;;;;;;;15.47;10.93;;;1.50;99.90;;;;;;5092068;28;20093;-77
2022/12/06 02:57:45;;;;;;;14.77;10.60;;;1.50;99.90;;;;;;5093352;28;20024;-77
2022/12/06 03:00:27;;;;;;;15.40;10.37;;;1.50;99.90;;;;;;5073067;28;20077;-77
2022/12/06 03:03:09;;;;;;;15.43;10.70;;;1.60;99.90;;;;;;5083246;28;20074;-78
2022/12/06 03:05:44;;;;;;;15.33;10.67;;;1.50;99.90;;;;;;5093044;28;20480;-77
2022/12/06 03:08:22;;;;;;;14.90;10.60;;;1.50;99.90;;;;;;5093307;28;20039;-77
2022/12/06 03:10:58;;;;;;;14.63;10.50;;;1.60;99.90;;;;;;5090322;28;20024;-78
2022/12/06 03:13:33;;;;;;;14.73;10.63;;;1.50;99.90;;;;;;5092965;28;20024;-77
2022/12/06 03:16:20;;;;;;;14.85;10.55;;;1.50;99.90;;;;;;5086970;28;20094;-77
2022/12/06 03:19:01;;;;;;;15.80;10.83;;;1.50;99.90;;;;;;5092575;28;20036;-77
2022/12/06 03:21:36;;;;;;;16.43;11.87;;;1.40;99.90;;;;;;5092679;28;20024;-77
2022/12/06 03:24:07;;;;;;;15.23;10.43;;;1.40;99.90;;;;;;5090650;28;20056;-81
2022/12/06 03:26:33;;;;;;;14.77;10.97;;;1.30;99.90;;;;;;5087304;28;20266;-80
2022/12/06 03:29:01;;;;;;;14.60;10.47;;;1.30;99.90;;;;;;5088206;28;20154;-80
2022/12/06 03:31:30;;;;;;;16.93;11.33;;;1.20;99.90;;;;;;5087598;28;20095;-80
2022/12/06 03:34:01;;;;;;;16.70;11.53;;;1.20;99.90;;;;;;5088381;28;20072;-80
2022/12/06 03:36:28;;;;;;;15.60;10.90;;;1.10;99.90;;;;;;5087195;28;20016;-80
2022/12/06 03:39:01;;;;;;;17.10;11.50;;;1.10;99.90;;;;;;5086871;28;20571;-80
2022/12/06 03:41:31;;;;;;;16.40;11.50;;;1.10;99.90;;;;;;5087732;28;20100;-80
2022/12/06 03:43:58;;;;;;;16.43;11.40;;;1.10;99.90;;;;;;5086241;28;20020;-80
2022/12/06 03:46:28;;;;;;;16.23;11.87;;;1.10;99.90;;;;;;5087842;28;20450;-80
2022/12/06 03:49:16;;;;;;;19.73;12.37;;;1.10;99.90;;;;;;5086381;28;20107;-80
2022/12/06 03:51:43;;;;;;;17.57;12.10;;;1.10;99.90;;;;;;5088113;28;20023;-81
2022/12/06 03:54:09;;;;;;;19.17;12.20;;;1.10;99.90;;;;;;5088790;28;20031;-77
2022/12/06 03:56:36;;;;;;;18.57;12.60;;;1.10;99.90;;;;;;5092415;28;20072;-77
2022/12/06 03:59:09;;;;;;;17.47;12.77;;;1.10;99.90;;;;;;5092199;28;20016;-77
2022/12/06 04:01:36;;;;;;;18.93;13.23;;;1.10;99.90;;;;;;5091309;28;20024;-77
2022/12/06 04:04:02;;;;;;;17.97;12.03;;;1.10;99.90;;;;;;5092070;28;20468;-77
2022/12/06 04:06:28;;;;;;;19.93;12.17;;;1.10;99.90;;;;;;5092441;28;20086;-77
2022/12/06 04:09:50;;;;;;;18.83;12.10;;;1.00;99.90;;;;;;5092331;28;20124;-77
2022/12/06 04:11:39;;;;;;;17.95;12.18;;;1.00;99.90;;;;;;5088939;28;20026;-76
2022/12/06 04:14:04;;;;;;;18.17;13.00;;;1.00;99.90;;;;;;5092306;28;20461;-77
2022/12/06 04:19:14;;;;;;;18.90;12.30;;;0.90;99.90;;;;;;5096512;28;20058;-76
2022/12/06 04:24:23;;;;;;;19.97;13.33;;;0.80;99.90;;;;;;5095150;28;20208;-77
2022/12/06 04:26:49;;;;;;;20.23;14.20;;;0.80;99.90;;;;;;5096156;28;20056;-76
2022/12/06 04:40:10;;;;;;;22.20;13.50;;;0.60;99.90;;;;;;5095536;28;20027;-76
2022/12/06 04:45:20;;;;;;;21.37;13.67;;;0.60;99.90;;;;;;5094182;28;20069;-77
2022/12/06 04:47:45;;;;;;;22.57;13.70;;;0.50;99.90;;;;;;5095330;28;20103;-77
2022/12/06 04:50:11;;;;;;;22.13;14.43;;;0.50;99.90;;;;;;5095365;28;20012;-76
2022/12/06 04:52:37;;;;;;;25.60;14.77;;;0.50;99.90;;;;;;5094922;28;20468;-77
2022/12/06 04:55:04;;;;;;;24.03;14.27;;;0.40;99.90;;;;;;5093627;28;20452;-76
2022/12/06 04:57:29;;;;;;;24.93;15.53;;;0.40;99.90;;;;;;5095216;28;20364;-76
2022/12/06 04:59:55;;;;;;;25.90;16.30;;;0.40;99.90;;;;;;5095228;28;20026;-77
2022/12/06 05:02:20;;;;;;;22.90;15.17;;;0.30;99.90;;;;;;5094926;28;20117;-77
2022/12/06 05:04:46;;;;;;;26.93;15.30;;;0.30;99.90;;;;;;5094451;28;20039;-77
2022/12/06 05:07:12;;;;;;;22.67;14.63;;;0.30;99.90;;;;;;5094962;28;20082;-77
2022/12/06 05:09:38;;;;;;;24.67;15.83;;;0.30;99.90;;;;;;5094816;28;20047;-77
2022/12/06 05:12:03;;;;;;;25.37;15.23;;;0.20;99.90;;;;;;5094150;28;20016;-77
2022/12/06 05:14:29;;;;;;;24.83;14.97;;;0.20;99.90;;;;;;5094340;28;20024;-78
2022/12/06 05:16:55;;;;;;;23.67;15.17;;;0.20;99.90;;;;;;5091148;28;20059;-78
2022/12/06 05:19:20;;;;;;;26.10;15.57;;;0.20;99.90;;;;;;5094219;28;20034;-78
2022/12/06 05:21:46;;;;;;;27.03;16.33;;;0.10;99.90;;;;;;5094669;28;20031;-78
2022/12/06 05:24:13;;;;;;;24.57;15.03;;;0.10;99.90;;;;;;5094793;28;20055;-77
2022/12/06 05:26:38;;;;;;;24.17;14.90;;;0.10;99.90;;;;;;5094602;28;20020;-77
2022/12/06 05:29:04;;;;;;;26.93;15.67;;;0.10;99.90;;;;;;5094617;28;20121;-77
2022/12/06 05:31:29;;;;;;;23.73;14.90;;;0.10;99.90;;;;;;5094356;28;20364;-77
2022/12/06 05:33:55;;;;;;;25.20;15.87;;;0.00;99.90;;;;;;5094825;28;20468;-77
2022/12/06 05:36:23;;;;;;;25.50;14.93;;;0.00;99.90;;;;;;5093169;28;20040;-76
2022/12/06 05:38:50;;;;;;;23.53;14.57;;;0.00;99.90;;;;;;5094591;28;20079;-77
2022/12/06 05:41:17;;;;;;;25.43;15.60;;;0.00;99.90;;;;;;5094199;28;20031;-76
2022/12/06 05:43:43;;;;;;;25.47;15.47;;;-0.10;99.90;;;;;;5094332;28;20495;-77
2022/12/06 05:46:08;;;;;;;27.93;16.77;;;-0.10;99.90;;;;;;5093729;28;20013;-77
2022/12/06 05:48:34;;;;;;;29.10;16.70;;;-0.10;99.90;;;;;;5093964;28;20441;-77
2022/12/06 05:51:00;;;;;;;28.57;17.33;;;-0.10;99.90;;;;;;5093970;28;20043;-77
2022/12/06 05:53:26;;;;;;;29.43;16.83;;;-0.10;99.90;;;;;;5093496;28;20024;-76
2022/12/06 05:55:51;;;;;;;27.67;16.87;;;-0.10;99.90;;;;;;5094125;28;20028;-76
2022/12/06 05:58:18;;;;;;;28.77;16.70;;;-0.20;99.90;;;;;;5093394;28;20016;-76
2022/12/06 06:00:50;;;;;;;31.70;17.80;;;-0.20;99.90;;;;;;5093532;28;20016;-76
2022/12/06 06:03:18;;;;;;;34.67;19.17;;;-0.20;99.90;;;;;;5092332;28;20118;-76
2022/12/06 06:05:48;;;;;;;35.60;20.87;;;-0.20;99.90;;;;;;5092715;28;20451;-76
2022/12/06 06:08:15;;;;;;;36.00;20.90;;;-0.20;99.90;;;;;;5090047;28;20019;-76
2022/12/06 06:10:40;;;;;;;38.77;22.20;;;-0.20;99.90;;;;;;5093262;28;20517;-77
2022/12/06 06:13:06;;;;;;;36.47;21.27;;;-0.20;99.90;;;;;;5092911;28;20028;-76
2022/12/06 06:15:31;;;;;;;40.17;22.13;;;-0.20;99.90;;;;;;5093456;28;20020;-77
2022/12/06 06:17:57;;;;;;;40.00;22.00;;;-0.20;99.90;;;;;;5090613;28;20505;-76
2022/12/06 06:20:23;;;;;;;41.57;23.63;;;-0.20;99.90;;;;;;5092947;28;20031;-76
2022/12/06 06:22:48;;;;;;;45.77;23.83;;;-0.20;99.90;;;;;;5092783;28;20031;-77
2022/12/06 06:25:15;;;;;;;39.20;21.90;;;-0.20;99.90;;;;;;5092627;28;20064;-76
2022/12/06 06:27:40;;;;;;;41.00;22.00;;;-0.10;99.90;;;;;;5091293;28;20692;-76
2022/12/06 06:30:09;;;;;;;39.10;22.40;;;-0.10;99.90;;;;;;5089726;28;20020;-77
2022/12/06 06:32:35;;;;;;;38.83;21.97;;;-0.10;99.90;;;;;;5093424;28;20103;-77
2022/12/06 06:35:02;;;;;;;40.50;22.00;;;0.00;99.90;;;;;;5092217;28;20032;-77
2022/12/06 06:37:27;;;;;;;37.53;21.33;;;0.00;99.90;;;;;;5091149;28;20081;-77
2022/12/06 06:39:53;;;;;;;38.00;21.17;;;0.10;99.90;;;;;;5090443;28;20028;-77
2022/12/06 06:42:19;;;;;;;37.37;20.53;;;0.10;99.90;;;;;;5087809;28;20107;-80
2022/12/06 06:44:44;;;;;;;36.77;21.23;;;0.20;99.90;;;;;;5057097;28;20035;-81
2022/12/06 06:47:10;;;;;;;36.67;20.27;;;0.20;99.90;;;;;;5055082;28;20031;-80
2022/12/06 06:49:35;;;;;;;35.17;19.67;;;0.30;99.90;;;;;;5052727;28;20121;-80
2022/12/06 06:52:01;;;;;;;32.67;18.73;;;0.30;99.90;;;;;;5053484;28;20032;-80
2022/12/06 06:54:27;;;;;;;35.60;19.57;;;0.40;99.90;;;;;;5052264;28;20127;-81
2022/12/06 06:56:56;;;;;;;32.13;19.23;;;0.40;99.90;;;;;;5054310;28;20034;-81
2022/12/06 06:59:23;;;;;;;34.70;20.03;;;0.40;99.90;;;;;;5060370;28;20028;-77
2022/12/06 07:01:48;;;;;;;32.17;19.70;;;0.40;99.90;;;;;;5085883;28;20046;-77
2022/12/06 07:04:14;;;;;;;32.83;18.73;;;0.40;99.90;;;;;;5087799;28;20028;-77
2022/12/06 07:06:40;;;;;;;32.13;19.60;;;0.40;99.90;;;;;;5090981;28;20028;-77
2022/12/06 07:09:06;;;;;;;28.90;17.73;;;0.40;99.90;;;;;;5089226;28;20028;-77
2022/12/06 07:11:31;;;;;;;32.60;18.90;;;0.30;99.90;;;;;;5090733;28;20108;-76
2022/12/06 07:13:57;;;;;;;33.50;19.33;;;0.30;99.90;;;;;;5091078;28;20024;-76
2022/12/06 07:16:22;;;;;;;32.30;18.80;;;0.30;99.90;;;;;;5091393;28;20028;-76
2022/12/06 07:18:48;;;;;;;29.63;17.87;;;0.30;99.90;;;;;;5090492;28;20070;-77
2022/12/06 07:21:16;;;;;;;31.87;19.00;;;0.30;99.90;;;;;;5091182;28;20027;-77
2022/12/06 07:23:41;;;;;;;36.50;19.77;;;0.20;99.90;;;;;;5091245;28;20015;-76
2022/12/06 07:26:11;;;;;;;30.50;18.00;;;0.20;99.90;;;;;;5091076;28;20012;-76
2022/12/06 07:28:39;;;;;;;32.30;17.57;;;0.20;99.90;;;;;;5091899;28;20024;-76
2022/12/06 07:31:30;;;;;;;36.20;19.00;;;0.20;99.90;;;;;;5091182;28;20525;-76
2022/12/06 07:33:57;;;;;;;34.27;19.13;;;0.20;99.90;;;;;;5090063;28;20024;-76
2022/12/06 07:36:24;;;;;;;34.80;19.70;;;0.20;99.90;;;;;;5090322;28;20111;-76
2022/12/06 07:38:53;;;;;;;30.57;18.63;;;0.20;99.90;;;;;;5090300;28;20031;-76
2022/12/06 07:46:49;;;;;;;32.23;18.47;;;0.20;99.90;;;;;;5091797;28;20029;-76
2022/12/06 07:49:16;;;;;;;34.33;18.30;;;0.30;99.90;;;;;;5084213;28;20025;-80
2022/12/06 07:51:42;;;;;;;35.60;20.13;;;0.30;99.90;;;;;;5083185;28;20020;-81
2022/12/06 07:54:08;;;;;;;36.13;20.83;;;0.40;99.90;;;;;;5082633;28;20082;-81
2022/12/06 07:56:34;;;;;;;38.47;20.70;;;0.40;99.90;;;;;;5082618;28;20073;-81
2022/12/06 07:59:00;;;;;;;36.03;21.00;;;0.60;99.90;;;;;;5082293;28;20042;-81
2022/12/06 08:01:25;;;;;;;39.97;21.27;;;0.70;99.90;;;;;;5080765;28;20032;-81
2022/12/06 08:03:52;;;;;;;37.37;20.40;;;0.80;99.90;;;;;;5081155;28;20043;-81
2022/12/06 08:06:18;;;;;;;34.90;20.47;;;0.90;99.90;;;;;;5081120;28;20384;-81
2022/12/06 08:08:43;;;;;;;29.10;18.53;;;1.00;99.90;;;;;;5081273;28;20025;-81
2022/12/06 08:11:09;;;;;;;31.37;18.83;;;1.10;99.90;;;;;;5081721;28;20806;-81
2022/12/06 08:13:36;;;;;;;33.00;19.30;;;1.20;99.90;;;;;;5082160;28;20182;-81
2022/12/06 08:16:07;;;;;;;32.80;19.37;;;1.20;99.90;;;;;;5080655;28;20130;-82
2022/12/06 08:18:32;;;;;;;28.23;17.47;;;1.30;99.90;;;;;;5081032;28;20040;-82
2022/12/06 08:20:58;;;;;;;26.80;18.13;;;1.40;99.90;;;;;;5081373;28;20024;-82
2022/12/06 08:23:24;;;;;;;27.77;17.67;;;1.40;99.90;;;;;;5081234;28;20059;-82
2022/12/06 08:26:00;;;;;;;24.60;16.87;;;1.50;99.90;;;;;;5081974;28;20277;-82
2022/12/06 08:28:26;;;;;;;29.13;17.77;;;1.60;99.90;;;;;;5079946;28;20031;-82
2022/12/06 08:30:52;;;;;;;30.93;18.77;;;1.60;99.90;;;;;;5082535;28;20020;-82
2022/12/06 08:33:17;;;;;;;29.83;18.10;;;1.70;99.90;;;;;;5079323;28;20054;-82
2022/12/06 08:35:43;;;;;;;27.77;18.07;;;1.80;99.90;;;;;;5080272;28;20105;-82
2022/12/06 08:38:09;;;;;;;26.13;16.30;;;1.90;99.90;;;;;;5081232;28;20126;-82
2022/12/06 08:40:34;;;;;;;24.87;17.17;;;1.90;99.90;;;;;;5081377;28;20055;-82
2022/12/06 08:43:00;;;;;;;25.33;17.07;;;2.00;99.90;;;;;;5081655;28;20063;-82
2022/12/06 08:45:25;;;;;;;29.13;17.93;;;2.10;99.90;;;;;;5080399;28;20027;-82
2022/12/06 08:47:51;;;;;;;26.30;17.10;;;2.10;99.90;;;;;;5079580;28;20467;-82
2022/12/06 08:50:16;;;;;;;25.10;16.17;;;2.20;99.90;;;;;;5078603;28;20016;-82
2022/12/06 08:52:42;;;;;;;26.87;15.57;;;2.30;99.90;;;;;;5080399;28;20067;-82
2022/12/06 08:55:08;;;;;;;24.43;15.30;;;2.30;99.90;;;;;;5079631;28;20024;-82
2022/12/06 08:57:33;;;;;;;22.70;15.33;;;2.40;99.90;;;;;;5081246;28;20024;-82
2022/12/06 08:59:59;;;;;;;22.63;14.40;;;2.40;99.90;;;;;;5087761;28;20039;-83
2022/12/06 09:02:24;;;;;;;23.30;14.83;;;2.40;99.90;;;;;;5083697;28;20027;-82
2022/12/06 09:04:50;;;;;;;22.20;14.40;;;2.40;99.90;;;;;;5081975;28;20074;-82
2022/12/06 09:07:17;;;;;;;21.47;13.50;;;2.50;99.90;;;;;;5079324;28;20024;-82
2022/12/06 09:09:44;;;;;;;19.73;13.77;;;2.50;99.90;;;;;;5079315;28;20103;-82
2022/12/06 09:12:11;;;;;;;23.27;14.93;;;2.50;99.90;;;;;;5080096;28;20031;-82
2022/12/06 09:14:36;;;;;;;22.80;14.60;;;2.60;99.90;;;;;;5081291;28;20081;-82
2022/12/06 09:17:02;;;;;;;20.57;13.87;;;2.60;99.90;;;;;;5080854;28;20040;-82
2022/12/06 09:19:27;;;;;;;20.47;13.90;;;2.60;99.90;;;;;;5078618;28;20020;-82
2022/12/06 09:21:53;;;;;;;17.83;12.57;;;2.70;99.90;;;;;;5081100;28;20028;-82
2022/12/06 09:24:19;;;;;;;19.07;12.10;;;2.70;99.90;;;;;;5087905;28;20032;-82
2022/12/06 09:26:44;;;;;;;18.67;12.07;;;2.80;99.90;;;;;;5086717;28;20047;-82
2022/12/06 09:29:10;;;;;;;19.67;12.87;;;2.80;99.90;;;;;;5086668;28;20435;-82
2022/12/06 09:31:38;;;;;;;15.80;11.70;;;2.80;99.90;;;;;;5088327;28;20027;-82
2022/12/06 09:34:06;;;;;;;16.87;11.43;;;2.80;99.90;;;;;;5086898;28;20024;-82
2022/12/06 09:36:32;;;;;;;21.37;12.63;;;2.80;99.90;;;;;;5090619;28;20048;-82
2022/12/06 09:39:15;;;;;;;15.40;10.87;;;2.80;99.90;;;;;;5088993;28;20028;-82
2022/12/06 09:41:58;;;;;;;14.80;10.87;;;2.80;99.90;;;;;;5089988;28;20046;-82
2022/12/06 09:44:53;;;;;;;18.67;11.23;;;2.90;99.90;;;;;;5086797;28;20058;-82
2022/12/06 09:47:49;;;;;;;13.47;9.93;;;2.90;99.90;;;;;;5084720;28;20051;-82
2022/12/06 09:50:30;;;;;;;16.23;10.88;;;3.00;99.90;;;;;;5091206;28;20027;-82
2022/12/06 09:53:46;;;;;;;14.83;10.40;;;2.90;99.90;;;;;;5086277;28;20031;-82
2022/12/06 09:56:35;;;;;;;18.00;10.38;;;3.00;99.90;;;;;;5060337;28;20051;-82
2022/12/06 09:59:16;;;;;;;14.43;9.73;;;3.00;99.90;;;;;;5089010;28;20034;-82
2022/12/06 10:01:52;;;;;;;13.50;8.80;;;3.00;99.90;;;;;;5088447;28;20032;-82
2022/12/06 10:04:58;;;;;;;12.17;8.67;;;3.10;99.90;;;;;;5092791;28;20126;-82
2022/12/06 10:07:33;;;;;;;14.05;9.35;;;3.10;99.90;;;;;;5092596;28;20048;-82
2022/12/06 10:10:29;;;;;;;13.05;9.05;;;3.10;99.90;;;;;;5093075;28;20027;-82
2022/12/06 10:13:07;;;;;;;13.75;9.05;;;3.20;99.90;;;;;;5090076;28;20500;-82
2022/12/06 10:15:40;;;;;;;13.93;9.13;;;3.20;99.90;;;;;;5090620;28;20119;-82
2022/12/06 10:18:39;;;;;;;12.97;8.90;;;3.30;99.90;;;;;;5087977;28;20062;-82
2022/12/06 10:21:20;;;;;;;14.10;9.53;;;3.30;99.90;;;;;;5088547;28;20035;-82
2022/12/06 10:23:59;;;;;;;14.00;8.93;;;3.40;99.90;;;;;;5089142;28;20445;-82
2022/12/06 10:26:53;;;;;;;14.13;9.13;;;3.40;99.90;;;;;;5089286;28;20035;-82
2022/12/06 10:29:18;;;;;;;10.67;7.60;;;3.40;99.90;;;;;;5089042;28;20042;-82
2022/12/06 10:32:02;;;;;;;11.93;8.50;;;3.40;99.90;;;;;;5089126;28;20032;-82
2022/12/06 10:34:56;;;;;;;13.60;8.73;;;3.50;99.90;;;;;;5089165;28;20162;-82
2022/12/06 10:37:37;;;;;;;12.83;8.13;;;3.50;99.90;;;;;;5088279;28;20386;-82
2022/12/06 10:40:19;;;;;;;12.77;8.93;;;3.60;99.90;;;;;;5089655;28;20030;-82
2022/12/06 10:42:55;;;;;;;15.17;9.10;;;3.60;99.90;;;;;;5087040;28;20024;-82
2022/12/06 10:48:45;;;;;;;9.97;7.87;;;3.60;99.90;;;;;;5087102;28;20038;-82
2022/12/06 10:51:17;;;;;;;11.13;7.80;;;3.60;99.90;;;;;;5089247;28;20027;-82
2022/12/06 10:53:57;;;;;;;9.77;7.10;;;3.60;99.90;;;;;;5087293;28;20024;-82
2022/12/06 10:56:27;;;;;;;11.07;7.60;;;3.60;99.90;;;;;;5088727;28;20159;-82
2022/12/06 10:58:56;;;;;;;12.80;7.40;;;3.70;99.90;;;;;;5087309;28;20521;-82
2022/12/06 11:01:30;;;;;;;9.90;7.27;;;3.70;99.90;;;;;;5089899;28;20023;-82
2022/12/06 11:04:28;;;;;;;10.70;7.95;;;3.70;99.90;;;;;;5088448;28;20039;-82
2022/12/06 11:07:04;;;;;;;9.20;7.33;;;3.70;99.90;;;;;;5089221;28;20032;-82
2022/12/06 11:09:40;;;;;;;10.03;7.17;;;3.70;99.90;;;;;;5088672;28;20024;-82
2022/12/06 11:12:32;;;;;;;10.70;7.57;;;3.70;99.90;;;;;;5088149;28;20080;-82
2022/12/06 11:15:08;;;;;;;13.40;7.80;;;3.80;99.90;;;;;;5088367;28;20012;-82
2022/12/06 11:17:39;;;;;;;10.50;7.47;;;3.80;99.90;;;;;;5090508;28;20051;-79
2022/12/06 11:20:14;;;;;;;10.50;7.13;;;3.80;99.90;;;;;;5092830;28;20104;-79
2022/12/06 11:23:16;;;;;;;10.30;7.30;;;3.80;99.90;;;;;;5092559;28;20384;-79
2022/12/06 11:26:01;;;;;;;8.50;6.50;;;3.80;99.90;;;;;;5097457;28;20062;-78
2022/12/06 11:28:35;;;;;;;9.95;7.40;;;3.80;99.90;;;;;;5100139;28;20529;-78
2022/12/06 11:31:33;;;;;;;8.77;6.20;;;3.80;99.90;;;;;;5099594;28;20031;-78
2022/12/06 11:33:59;;;;;;;8.90;5.97;;;3.80;99.90;;;;;;5101657;28;20028;-78
2022/12/06 11:36:25;;;;;;;8.23;6.30;;;3.80;99.90;;;;;;5100362;28;20036;-78
2022/12/06 11:38:52;;;;;;;6.87;5.33;;;3.80;99.90;;;;;;5098334;28;20020;-78
2022/12/06 11:41:33;;;;;;;9.50;5.93;;;3.80;99.90;;;;;;5099875;28;20089;-78
2022/12/06 11:43:59;;;;;;;8.07;5.87;;;3.80;99.90;;;;;;5097624;28;20108;-78
2022/12/06 11:46:25;;;;;;;8.43;5.30;;;3.80;99.90;;;;;;5098456;28;20111;-78
2022/12/06 11:48:51;;;;;;;7.53;5.30;;;3.80;99.90;;;;;;5098066;28;20016;-78
2022/12/06 11:51:20;;;;;;;8.90;5.40;;;3.80;99.90;;;;;;5097547;28;20047;-78
2022/12/06 11:53:53;;;;;;;8.73;4.93;;;3.80;99.90;;;;;;5096257;28;20042;-78
2022/12/06 11:56:26;;;;;;;7.67;5.73;;;3.80;99.90;;;;;;5096560;28;20127;-78
2022/12/06 11:59:23;;;;;;;7.30;5.67;;;3.70;99.90;;;;;;5096684;28;20464;-78
2022/12/06 12:01:50;;;;;;;9.33;5.60;;;3.80;99.90;;;;;;5094817;28;20020;-78
2022/12/06 12:04:31;;;;;;;8.43;5.90;;;3.80;99.90;;;;;;5095816;28;20472;-78
2022/12/06 12:07:08;;;;;;;12.23;7.17;;;3.80;99.90;;;;;;5095459;28;20107;-78
2022/12/06 12:09:53;;;;;;;10.50;6.60;;;3.80;99.90;;;;;;5096296;28;20424;-78
2022/12/06 12:13:42;;;;;;;11.25;6.32;;;3.80;99.90;;;;;;5097205;28;20396;-78
2022/12/06 12:15:20;;;;;;;12.47;7.17;;;3.80;99.90;;;;;;5096193;28;20060;-78
2022/12/06 12:17:50;;;;;;;9.63;6.70;;;3.80;99.90;;;;;;5095709;28;20032;-78
2022/12/06 12:20:27;;;;;;;11.83;6.57;;;3.80;99.90;;;;;;5098548;28;20019;-78
2022/12/06 12:23:22;;;;;;;9.87;5.87;;;3.80;99.90;;;;;;5098025;28;20027;-78
2022/12/06 12:26:12;;;;;;;12.88;6.93;;;3.80;99.90;;;;;;5098252;28;20406;-78
2022/12/06 12:28:39;;;;;;;9.80;6.10;;;3.80;99.90;;;;;;5098551;28;20411;-78
2022/12/06 12:31:18;;;;;;;11.93;5.97;;;3.80;99.90;;;;;;5098352;28;20013;-78
2022/12/06 12:33:44;;;;;;;9.47;5.90;;;3.80;99.90;;;;;;5098541;28;20073;-78
2022/12/06 12:36:27;;;;;;;9.93;5.23;;;3.80;99.90;;;;;;5096637;28;20024;-78
2022/12/06 12:39:02;;;;;;;8.20;5.37;;;3.70;99.90;;;;;;5093514;28;20073;-78
2022/12/06 12:41:38;;;;;;;9.70;5.57;;;3.70;99.90;;;;;;5094656;28;20081;-78
2022/12/06 12:44:22;;;;;;;10.63;7.57;;;3.70;99.90;;;;;;5094986;28;20031;-78
2022/12/06 12:46:54;;;;;;;10.37;5.80;;;3.70;99.90;;;;;;5091154;28;20012;-78
2022/12/06 12:49:32;;;;;;;11.73;6.17;;;3.70;99.90;;;;;;5094735;28;20025;-78
2022/12/06 12:51:59;;;;;;;10.30;7.20;;;3.70;99.90;;;;;;5094074;28;20016;-78
2022/12/06 12:54:31;;;;;;;9.57;6.20;;;3.60;99.90;;;;;;5094993;28;20147;-78
2022/12/06 12:57:00;;;;;;;10.10;5.70;;;3.70;99.90;;;;;;5094608;28;20130;-78
2022/12/06 12:59:31;;;;;;;8.17;6.00;;;3.60;99.90;;;;;;5093296;28;20020;-78
2022/12/06 13:02:25;;;;;;;9.13;5.70;;;3.70;99.90;;;;;;5095142;28;20024;-78
2022/12/06 13:05:15;;;;;;;8.13;5.53;;;3.60;99.90;;;;;;5094587;28;20095;-78
2022/12/06 13:07:42;;;;;;;7.07;5.30;;;3.60;99.90;;;;;;5084327;28;20476;-78
2022/12/06 13:10:14;;;;;;;7.50;5.17;;;3.60;99.90;;;;;;5094288;28;20042;-79
2022/12/06 13:12:51;;;;;;;7.37;5.07;;;3.60;99.90;;;;;;5092815;28;20012;-79
2022/12/06 13:15:24;;;;;;;9.60;5.80;;;3.60;99.90;;;;;;5091115;28;20396;-79
2022/12/06 13:17:55;;;;;;;9.30;5.53;;;3.60;99.90;;;;;;5093280;28;20059;-79
2022/12/06 13:20:26;;;;;;;14.47;6.00;;;3.60;99.90;;;;;;5093343;28;20016;-79
2022/12/06 13:22:56;;;;;;;10.10;6.83;;;3.60;99.90;;;;;;5093427;28;20024;-79
2022/12/06 13:25:22;;;;;;;16.33;7.70;;;3.60;99.90;;;;;;5092757;28;20028;-79
2022/12/06 13:27:52;;;;;;;11.10;7.17;;;3.60;99.90;;;;;;5092129;28;20020;-79
2022/12/06 13:30:23;;;;;;;10.33;6.97;;;3.60;99.90;;;;;;5092878;28;20052;-79
2022/12/06 13:32:57;;;;;;;10.37;6.50;;;3.60;99.90;;;;;;5093224;28;20024;-79